<?xml version="1.0" encoding="UTF-8" standalone="no" ?>
<gpx xmlns="http://www.topografix.com/GPX/1/1" xmlns:xsi="http://www.w3.org/2001/XMLSchema-instance" xsi:schemaLocation="http://www.topografix.com/GPX/1/1 http://www.topografix.com/GPX/1/1/gpx.xsd" version="1.1" creator="VisuGPX - https://www.visugpx.com">
  <metadata>
    <name>2016-Pronville_3</name>
    <desc><![CDATA[Troisieme parcours]]></desc>
  </metadata>
  <trk>
    <name><![CDATA[2016-04-23 16:50]]></name>
    <desc><![CDATA[<p>Temps de départ: 04/23/2016 16:50</p><p>Temps d'arrivée: 04/23/2016 18:10</p><p>Distance: 13,7 km (01:19)</p><p>Temps déplacement: 01:18</p><p>Vitesse moyenne: 10,4 km/h</p><p>Vitesse moyenne mouvement: 10,5 km/h</p><p>Vitess Max.: 29,1km/h</p><p>Altitude minimale: 20 m</p><p>Altitude maximale: 109 m</p><p>Vitesse d'élévation: 695,7 m/h</p><p>Vitesse de descente: -675,2 m/h</p><p>Gain Altitude: 396 m</p><p>Perte Altitude: -396 m</p><p>Temps d'élévation: 00:34</p><p>Temps de descente: 00:35</p><hr align="center" width="480" style="height: 2px; width: 517px"/>]]></desc>
    <trkseg>
      <trkpt lat="50.17519" lon="3.00446">
        <ele>75.01</ele>
        <time>2016-04-23T14:50:43Z</time>
      </trkpt>
      <trkpt lat="50.17505" lon="3.00468">
        <ele>67.47</ele>
        <time>2016-04-23T14:51:12Z</time>
      </trkpt>
      <trkpt lat="50.17489" lon="3.00487">
        <ele>64.27</ele>
        <time>2016-04-23T14:51:17Z</time>
      </trkpt>
      <trkpt lat="50.17476" lon="3.00513">
        <ele>64.2</ele>
        <time>2016-04-23T14:51:24Z</time>
      </trkpt>
      <trkpt lat="50.17468" lon="3.00539">
        <ele>64.01</ele>
        <time>2016-04-23T14:51:29Z</time>
      </trkpt>
      <trkpt lat="50.17463" lon="3.00566">
        <ele>64.21</ele>
        <time>2016-04-23T14:51:34Z</time>
      </trkpt>
      <trkpt lat="50.17448" lon="3.00588">
        <ele>66.16</ele>
        <time>2016-04-23T14:51:41Z</time>
      </trkpt>
      <trkpt lat="50.1743" lon="3.00597">
        <ele>68.17</ele>
        <time>2016-04-23T14:51:46Z</time>
      </trkpt>
      <trkpt lat="50.17412" lon="3.00599">
        <ele>67.41</ele>
        <time>2016-04-23T14:51:50Z</time>
      </trkpt>
      <trkpt lat="50.1739" lon="3.00603">
        <ele>71.01</ele>
        <time>2016-04-23T14:51:55Z</time>
      </trkpt>
      <trkpt lat="50.17371" lon="3.00603">
        <ele>71.21</ele>
        <time>2016-04-23T14:52:00Z</time>
      </trkpt>
      <trkpt lat="50.17352" lon="3.00601">
        <ele>70.25</ele>
        <time>2016-04-23T14:52:05Z</time>
      </trkpt>
      <trkpt lat="50.17332" lon="3.00604">
        <ele>71.21</ele>
        <time>2016-04-23T14:52:10Z</time>
      </trkpt>
      <trkpt lat="50.17315" lon="3.00613">
        <ele>73.01</ele>
        <time>2016-04-23T14:52:14Z</time>
      </trkpt>
      <trkpt lat="50.17298" lon="3.00627">
        <ele>73.21</ele>
        <time>2016-04-23T14:52:18Z</time>
      </trkpt>
      <trkpt lat="50.17282" lon="3.00646">
        <ele>73.21</ele>
        <time>2016-04-23T14:52:22Z</time>
      </trkpt>
      <trkpt lat="50.17269" lon="3.00673">
        <ele>73.18</ele>
        <time>2016-04-23T14:52:26Z</time>
      </trkpt>
      <trkpt lat="50.17252" lon="3.00699">
        <ele>73.21</ele>
        <time>2016-04-23T14:52:30Z</time>
      </trkpt>
      <trkpt lat="50.17238" lon="3.00719">
        <ele>72.22</ele>
        <time>2016-04-23T14:52:33Z</time>
      </trkpt>
      <trkpt lat="50.17224" lon="3.00742">
        <ele>71.22</ele>
        <time>2016-04-23T14:52:36Z</time>
      </trkpt>
      <trkpt lat="50.17207" lon="3.00768">
        <ele>71.21</ele>
        <time>2016-04-23T14:52:39Z</time>
      </trkpt>
      <trkpt lat="50.1719" lon="3.00794">
        <ele>69.45</ele>
        <time>2016-04-23T14:52:42Z</time>
      </trkpt>
      <trkpt lat="50.17175" lon="3.00822">
        <ele>70.21</ele>
        <time>2016-04-23T14:52:45Z</time>
      </trkpt>
      <trkpt lat="50.17159" lon="3.00847">
        <ele>70.05</ele>
        <time>2016-04-23T14:52:48Z</time>
      </trkpt>
      <trkpt lat="50.17144" lon="3.00872">
        <ele>70.21</ele>
        <time>2016-04-23T14:52:51Z</time>
      </trkpt>
      <trkpt lat="50.17131" lon="3.00895">
        <ele>70.05</ele>
        <time>2016-04-23T14:52:54Z</time>
      </trkpt>
      <trkpt lat="50.17118" lon="3.00914">
        <ele>69.22</ele>
        <time>2016-04-23T14:52:57Z</time>
      </trkpt>
      <trkpt lat="50.17105" lon="3.00942">
        <ele>69.25</ele>
        <time>2016-04-23T14:53:01Z</time>
      </trkpt>
      <trkpt lat="50.17094" lon="3.00966">
        <ele>71.2</ele>
        <time>2016-04-23T14:53:05Z</time>
      </trkpt>
      <trkpt lat="50.17083" lon="3.0099">
        <ele>71.02</ele>
        <time>2016-04-23T14:53:09Z</time>
      </trkpt>
      <trkpt lat="50.17071" lon="3.01018">
        <ele>69.26</ele>
        <time>2016-04-23T14:53:14Z</time>
      </trkpt>
      <trkpt lat="50.17061" lon="3.01042">
        <ele>68.22</ele>
        <time>2016-04-23T14:53:18Z</time>
      </trkpt>
      <trkpt lat="50.17048" lon="3.01069">
        <ele>68.21</ele>
        <time>2016-04-23T14:53:23Z</time>
      </trkpt>
      <trkpt lat="50.17029" lon="3.01089">
        <ele>68.37</ele>
        <time>2016-04-23T14:53:29Z</time>
      </trkpt>
      <trkpt lat="50.17017" lon="3.01115">
        <ele>66.02</ele>
        <time>2016-04-23T14:53:38Z</time>
      </trkpt>
      <trkpt lat="50.17026" lon="3.01142">
        <ele>58.82</ele>
        <time>2016-04-23T14:53:43Z</time>
      </trkpt>
      <trkpt lat="50.17024" lon="3.0117">
        <ele>54.5</ele>
        <time>2016-04-23T14:53:49Z</time>
      </trkpt>
      <trkpt lat="50.17024" lon="3.012">
        <ele>51.42</ele>
        <time>2016-04-23T14:53:55Z</time>
      </trkpt>
      <trkpt lat="50.1703" lon="3.01233">
        <ele>52.37</ele>
        <time>2016-04-23T14:54:01Z</time>
      </trkpt>
      <trkpt lat="50.17029" lon="3.01262">
        <ele>53.21</ele>
        <time>2016-04-23T14:54:06Z</time>
      </trkpt>
      <trkpt lat="50.17033" lon="3.01294">
        <ele>50.45</ele>
        <time>2016-04-23T14:54:12Z</time>
      </trkpt>
      <trkpt lat="50.17027" lon="3.01321">
        <ele>55.35</ele>
        <time>2016-04-23T14:54:17Z</time>
      </trkpt>
      <trkpt lat="50.17018" lon="3.01348">
        <ele>55.2</ele>
        <time>2016-04-23T14:54:25Z</time>
      </trkpt>
      <trkpt lat="50.17011" lon="3.01377">
        <ele>51.62</ele>
        <time>2016-04-23T14:54:31Z</time>
      </trkpt>
      <trkpt lat="50.17005" lon="3.01404">
        <ele>49.07</ele>
        <time>2016-04-23T14:54:36Z</time>
      </trkpt>
      <trkpt lat="50.17003" lon="3.01436">
        <ele>45.02</ele>
        <time>2016-04-23T14:54:42Z</time>
      </trkpt>
      <trkpt lat="50.17001" lon="3.01466">
        <ele>46.97</ele>
        <time>2016-04-23T14:54:47Z</time>
      </trkpt>
      <trkpt lat="50.16999" lon="3.01496">
        <ele>44.39</ele>
        <time>2016-04-23T14:54:52Z</time>
      </trkpt>
      <trkpt lat="50.16997" lon="3.01525">
        <ele>48.92</ele>
        <time>2016-04-23T14:54:57Z</time>
      </trkpt>
      <trkpt lat="50.16987" lon="3.01554">
        <ele>54.13</ele>
        <time>2016-04-23T14:55:02Z</time>
      </trkpt>
      <trkpt lat="50.16984" lon="3.01584">
        <ele>57.17</ele>
        <time>2016-04-23T14:55:07Z</time>
      </trkpt>
      <trkpt lat="50.16995" lon="3.01717">
        <ele>67.81</ele>
        <time>2016-04-23T14:55:42Z</time>
      </trkpt>
      <trkpt lat="50.17013" lon="3.0173">
        <ele>87.12</ele>
        <time>2016-04-23T14:55:45Z</time>
      </trkpt>
      <trkpt lat="50.1701" lon="3.01758">
        <ele>72.15</ele>
        <time>2016-04-23T14:55:50Z</time>
      </trkpt>
      <trkpt lat="50.17016" lon="3.01788">
        <ele>58.18</ele>
        <time>2016-04-23T14:55:57Z</time>
      </trkpt>
      <trkpt lat="50.17024" lon="3.01815">
        <ele>55.42</ele>
        <time>2016-04-23T14:56:03Z</time>
      </trkpt>
      <trkpt lat="50.17035" lon="3.01842">
        <ele>54.34</ele>
        <time>2016-04-23T14:56:09Z</time>
      </trkpt>
      <trkpt lat="50.17043" lon="3.01867">
        <ele>53.26</ele>
        <time>2016-04-23T14:56:14Z</time>
      </trkpt>
      <trkpt lat="50.17053" lon="3.01893">
        <ele>51.3</ele>
        <time>2016-04-23T14:56:19Z</time>
      </trkpt>
      <trkpt lat="50.17056" lon="3.01923">
        <ele>46.63</ele>
        <time>2016-04-23T14:56:26Z</time>
      </trkpt>
      <trkpt lat="50.1706" lon="3.01951">
        <ele>47.02</ele>
        <time>2016-04-23T14:56:32Z</time>
      </trkpt>
      <trkpt lat="50.17064" lon="3.01981">
        <ele>47.01</ele>
        <time>2016-04-23T14:56:38Z</time>
      </trkpt>
      <trkpt lat="50.1706" lon="3.02009">
        <ele>47.41</ele>
        <time>2016-04-23T14:56:43Z</time>
      </trkpt>
      <trkpt lat="50.17058" lon="3.0204">
        <ele>48.21</ele>
        <time>2016-04-23T14:56:50Z</time>
      </trkpt>
      <trkpt lat="50.1706" lon="3.02073">
        <ele>49.25</ele>
        <time>2016-04-23T14:56:56Z</time>
      </trkpt>
      <trkpt lat="50.17058" lon="3.02103">
        <ele>52.04</ele>
        <time>2016-04-23T14:57:01Z</time>
      </trkpt>
      <trkpt lat="50.17056" lon="3.02134">
        <ele>52.25</ele>
        <time>2016-04-23T14:57:07Z</time>
      </trkpt>
      <trkpt lat="50.17055" lon="3.02165">
        <ele>52.41</ele>
        <time>2016-04-23T14:57:13Z</time>
      </trkpt>
      <trkpt lat="50.17054" lon="3.02194">
        <ele>53.01</ele>
        <time>2016-04-23T14:57:18Z</time>
      </trkpt>
      <trkpt lat="50.17055" lon="3.02227">
        <ele>53.17</ele>
        <time>2016-04-23T14:57:24Z</time>
      </trkpt>
      <trkpt lat="50.17056" lon="3.0226">
        <ele>55.21</ele>
        <time>2016-04-23T14:57:30Z</time>
      </trkpt>
      <trkpt lat="50.17054" lon="3.0229">
        <ele>50.46</ele>
        <time>2016-04-23T14:57:37Z</time>
      </trkpt>
      <trkpt lat="50.17054" lon="3.02323">
        <ele>52.97</ele>
        <time>2016-04-23T14:57:46Z</time>
      </trkpt>
      <trkpt lat="50.17052" lon="3.02355">
        <ele>53.01</ele>
        <time>2016-04-23T14:57:52Z</time>
      </trkpt>
      <trkpt lat="50.17056" lon="3.02384">
        <ele>51.42</ele>
        <time>2016-04-23T14:57:58Z</time>
      </trkpt>
      <trkpt lat="50.17071" lon="3.02403">
        <ele>51.25</ele>
        <time>2016-04-23T14:58:03Z</time>
      </trkpt>
      <trkpt lat="50.17088" lon="3.02412">
        <ele>52.02</ele>
        <time>2016-04-23T14:58:08Z</time>
      </trkpt>
      <trkpt lat="50.17103" lon="3.02431">
        <ele>51.81</ele>
        <time>2016-04-23T14:58:14Z</time>
      </trkpt>
      <trkpt lat="50.17112" lon="3.0246">
        <ele>51.01</ele>
        <time>2016-04-23T14:58:21Z</time>
      </trkpt>
      <trkpt lat="50.17124" lon="3.02488">
        <ele>51.97</ele>
        <time>2016-04-23T14:58:28Z</time>
      </trkpt>
      <trkpt lat="50.17131" lon="3.02515">
        <ele>51.41</ele>
        <time>2016-04-23T14:58:34Z</time>
      </trkpt>
      <trkpt lat="50.17142" lon="3.02539">
        <ele>52.17</ele>
        <time>2016-04-23T14:58:41Z</time>
      </trkpt>
      <trkpt lat="50.17155" lon="3.02559">
        <ele>53.25</ele>
        <time>2016-04-23T14:58:46Z</time>
      </trkpt>
      <trkpt lat="50.17167" lon="3.02585">
        <ele>55.01</ele>
        <time>2016-04-23T14:58:53Z</time>
      </trkpt>
      <trkpt lat="50.17177" lon="3.02613">
        <ele>53.22</ele>
        <time>2016-04-23T14:59:00Z</time>
      </trkpt>
      <trkpt lat="50.17188" lon="3.02638">
        <ele>53.23</ele>
        <time>2016-04-23T14:59:07Z</time>
      </trkpt>
      <trkpt lat="50.172" lon="3.02662">
        <ele>50.22</ele>
        <time>2016-04-23T14:59:15Z</time>
      </trkpt>
      <trkpt lat="50.17214" lon="3.02682">
        <ele>51.22</ele>
        <time>2016-04-23T14:59:22Z</time>
      </trkpt>
      <trkpt lat="50.17221" lon="3.02708">
        <ele>49.21</ele>
        <time>2016-04-23T14:59:29Z</time>
      </trkpt>
      <trkpt lat="50.17227" lon="3.02735">
        <ele>47.06</ele>
        <time>2016-04-23T14:59:36Z</time>
      </trkpt>
      <trkpt lat="50.17232" lon="3.02766">
        <ele>45.38</ele>
        <time>2016-04-23T14:59:45Z</time>
      </trkpt>
      <trkpt lat="50.17239" lon="3.02795">
        <ele>43.21</ele>
        <time>2016-04-23T14:59:53Z</time>
      </trkpt>
      <trkpt lat="50.17244" lon="3.02824">
        <ele>43.22</ele>
        <time>2016-04-23T15:00:02Z</time>
      </trkpt>
      <trkpt lat="50.17255" lon="3.02848">
        <ele>43.22</ele>
        <time>2016-04-23T15:00:10Z</time>
      </trkpt>
      <trkpt lat="50.17311" lon="3.0299">
        <ele>30.41</ele>
        <time>2016-04-23T15:00:44Z</time>
      </trkpt>
      <trkpt lat="50.17321" lon="3.03015">
        <ele>53.61</ele>
        <time>2016-04-23T15:00:53Z</time>
      </trkpt>
      <trkpt lat="50.17337" lon="3.03032">
        <ele>59.27</ele>
        <time>2016-04-23T15:00:57Z</time>
      </trkpt>
      <trkpt lat="50.17346" lon="3.03057">
        <ele>53.45</ele>
        <time>2016-04-23T15:01:03Z</time>
      </trkpt>
      <trkpt lat="50.17355" lon="3.03084">
        <ele>50.46</ele>
        <time>2016-04-23T15:01:11Z</time>
      </trkpt>
      <trkpt lat="50.17366" lon="3.03113">
        <ele>49.2</ele>
        <time>2016-04-23T15:01:18Z</time>
      </trkpt>
      <trkpt lat="50.17378" lon="3.0314">
        <ele>49.26</ele>
        <time>2016-04-23T15:01:27Z</time>
      </trkpt>
      <trkpt lat="50.17389" lon="3.03164">
        <ele>48.05</ele>
        <time>2016-04-23T15:01:33Z</time>
      </trkpt>
      <trkpt lat="50.174" lon="3.03187">
        <ele>49.38</ele>
        <time>2016-04-23T15:01:40Z</time>
      </trkpt>
      <trkpt lat="50.17413" lon="3.03207">
        <ele>52.4</ele>
        <time>2016-04-23T15:01:46Z</time>
      </trkpt>
      <trkpt lat="50.17424" lon="3.0323">
        <ele>50.38</ele>
        <time>2016-04-23T15:01:53Z</time>
      </trkpt>
      <trkpt lat="50.17439" lon="3.03254">
        <ele>52.18</ele>
        <time>2016-04-23T15:02:00Z</time>
      </trkpt>
      <trkpt lat="50.17449" lon="3.03281">
        <ele>48.22</ele>
        <time>2016-04-23T15:02:10Z</time>
      </trkpt>
      <trkpt lat="50.17461" lon="3.03302">
        <ele>47.41</ele>
        <time>2016-04-23T15:02:16Z</time>
      </trkpt>
      <trkpt lat="50.17473" lon="3.03327">
        <ele>46.65</ele>
        <time>2016-04-23T15:02:23Z</time>
      </trkpt>
      <trkpt lat="50.17483" lon="3.03351">
        <ele>45.21</ele>
        <time>2016-04-23T15:02:30Z</time>
      </trkpt>
      <trkpt lat="50.17493" lon="3.03375">
        <ele>47.77</ele>
        <time>2016-04-23T15:02:36Z</time>
      </trkpt>
      <trkpt lat="50.17504" lon="3.03404">
        <ele>47.37</ele>
        <time>2016-04-23T15:02:43Z</time>
      </trkpt>
      <trkpt lat="50.17508" lon="3.03432">
        <ele>51.38</ele>
        <time>2016-04-23T15:02:51Z</time>
      </trkpt>
      <trkpt lat="50.17512" lon="3.03462">
        <ele>50.26</ele>
        <time>2016-04-23T15:02:59Z</time>
      </trkpt>
      <trkpt lat="50.17519" lon="3.03491">
        <ele>51.05</ele>
        <time>2016-04-23T15:03:07Z</time>
      </trkpt>
      <trkpt lat="50.17526" lon="3.03517">
        <ele>48.38</ele>
        <time>2016-04-23T15:03:14Z</time>
      </trkpt>
      <trkpt lat="50.17533" lon="3.03547">
        <ele>48.25</ele>
        <time>2016-04-23T15:03:21Z</time>
      </trkpt>
      <trkpt lat="50.17538" lon="3.03577">
        <ele>45.22</ele>
        <time>2016-04-23T15:03:29Z</time>
      </trkpt>
      <trkpt lat="50.17548" lon="3.03605">
        <ele>47.01</ele>
        <time>2016-04-23T15:03:36Z</time>
      </trkpt>
      <trkpt lat="50.17553" lon="3.03633">
        <ele>47.37</ele>
        <time>2016-04-23T15:03:42Z</time>
      </trkpt>
      <trkpt lat="50.1756" lon="3.03659">
        <ele>45.42</ele>
        <time>2016-04-23T15:03:49Z</time>
      </trkpt>
      <trkpt lat="50.17568" lon="3.03687">
        <ele>43.61</ele>
        <time>2016-04-23T15:03:56Z</time>
      </trkpt>
      <trkpt lat="50.17576" lon="3.03716">
        <ele>41.61</ele>
        <time>2016-04-23T15:04:02Z</time>
      </trkpt>
      <trkpt lat="50.17585" lon="3.03743">
        <ele>44.01</ele>
        <time>2016-04-23T15:04:08Z</time>
      </trkpt>
      <trkpt lat="50.17593" lon="3.03772">
        <ele>43.21</ele>
        <time>2016-04-23T15:04:15Z</time>
      </trkpt>
      <trkpt lat="50.17602" lon="3.03799">
        <ele>41.06</ele>
        <time>2016-04-23T15:04:23Z</time>
      </trkpt>
      <trkpt lat="50.17609" lon="3.03828">
        <ele>43.97</ele>
        <time>2016-04-23T15:04:31Z</time>
      </trkpt>
      <trkpt lat="50.17615" lon="3.03855">
        <ele>47.01</ele>
        <time>2016-04-23T15:04:39Z</time>
      </trkpt>
      <trkpt lat="50.17623" lon="3.03885">
        <ele>45.22</ele>
        <time>2016-04-23T15:04:47Z</time>
      </trkpt>
      <trkpt lat="50.17629" lon="3.03913">
        <ele>45.09</ele>
        <time>2016-04-23T15:04:54Z</time>
      </trkpt>
      <trkpt lat="50.17636" lon="3.03943">
        <ele>42.61</ele>
        <time>2016-04-23T15:05:00Z</time>
      </trkpt>
      <trkpt lat="50.17644" lon="3.03968">
        <ele>42.78</ele>
        <time>2016-04-23T15:05:06Z</time>
      </trkpt>
      <trkpt lat="50.17706" lon="3.04142">
        <ele>51.61</ele>
        <time>2016-04-23T15:05:43Z</time>
      </trkpt>
      <trkpt lat="50.17712" lon="3.04168">
        <ele>45.04</ele>
        <time>2016-04-23T15:05:54Z</time>
      </trkpt>
      <trkpt lat="50.17715" lon="3.04198">
        <ele>43.29</ele>
        <time>2016-04-23T15:06:02Z</time>
      </trkpt>
      <trkpt lat="50.17722" lon="3.04225">
        <ele>44.22</ele>
        <time>2016-04-23T15:06:08Z</time>
      </trkpt>
      <trkpt lat="50.17725" lon="3.04253">
        <ele>43.22</ele>
        <time>2016-04-23T15:06:16Z</time>
      </trkpt>
      <trkpt lat="50.17731" lon="3.0428">
        <ele>45.25</ele>
        <time>2016-04-23T15:06:24Z</time>
      </trkpt>
      <trkpt lat="50.17724" lon="3.04309">
        <ele>48.01</ele>
        <time>2016-04-23T15:06:32Z</time>
      </trkpt>
      <trkpt lat="50.17713" lon="3.04334">
        <ele>47.21</ele>
        <time>2016-04-23T15:06:38Z</time>
      </trkpt>
      <trkpt lat="50.17701" lon="3.04356">
        <ele>49.18</ele>
        <time>2016-04-23T15:06:45Z</time>
      </trkpt>
      <trkpt lat="50.17686" lon="3.04373">
        <ele>50.08</ele>
        <time>2016-04-23T15:06:55Z</time>
      </trkpt>
      <trkpt lat="50.1767" lon="3.04391">
        <ele>51.21</ele>
        <time>2016-04-23T15:07:06Z</time>
      </trkpt>
      <trkpt lat="50.17658" lon="3.04415">
        <ele>45.65</ele>
        <time>2016-04-23T15:07:16Z</time>
      </trkpt>
      <trkpt lat="50.17647" lon="3.04438">
        <ele>52.16</ele>
        <time>2016-04-23T15:07:28Z</time>
      </trkpt>
      <trkpt lat="50.17634" lon="3.0446">
        <ele>50.3</ele>
        <time>2016-04-23T15:07:42Z</time>
      </trkpt>
      <trkpt lat="50.1762" lon="3.04482">
        <ele>53.25</ele>
        <time>2016-04-23T15:07:54Z</time>
      </trkpt>
      <trkpt lat="50.17603" lon="3.04468">
        <ele>55.21</ele>
        <time>2016-04-23T15:08:03Z</time>
      </trkpt>
      <trkpt lat="50.17593" lon="3.04441">
        <ele>53.09</ele>
        <time>2016-04-23T15:08:10Z</time>
      </trkpt>
      <trkpt lat="50.17583" lon="3.04414">
        <ele>52.21</ele>
        <time>2016-04-23T15:08:17Z</time>
      </trkpt>
      <trkpt lat="50.17571" lon="3.04389">
        <ele>55</ele>
        <time>2016-04-23T15:08:24Z</time>
      </trkpt>
      <trkpt lat="50.17564" lon="3.0436">
        <ele>53.41</ele>
        <time>2016-04-23T15:08:32Z</time>
      </trkpt>
      <trkpt lat="50.17552" lon="3.04334">
        <ele>57</ele>
        <time>2016-04-23T15:08:39Z</time>
      </trkpt>
      <trkpt lat="50.17548" lon="3.04306">
        <ele>57.77</ele>
        <time>2016-04-23T15:08:46Z</time>
      </trkpt>
      <trkpt lat="50.17544" lon="3.04276">
        <ele>55.29</ele>
        <time>2016-04-23T15:08:53Z</time>
      </trkpt>
      <trkpt lat="50.17535" lon="3.04246">
        <ele>54.98</ele>
        <time>2016-04-23T15:09:00Z</time>
      </trkpt>
      <trkpt lat="50.17525" lon="3.04223">
        <ele>57.13</ele>
        <time>2016-04-23T15:09:06Z</time>
      </trkpt>
      <trkpt lat="50.17514" lon="3.04196">
        <ele>54.45</ele>
        <time>2016-04-23T15:09:13Z</time>
      </trkpt>
      <trkpt lat="50.17499" lon="3.04176">
        <ele>56.17</ele>
        <time>2016-04-23T15:09:19Z</time>
      </trkpt>
      <trkpt lat="50.17485" lon="3.04153">
        <ele>54.42</ele>
        <time>2016-04-23T15:09:27Z</time>
      </trkpt>
      <trkpt lat="50.17471" lon="3.04131">
        <ele>57.97</ele>
        <time>2016-04-23T15:09:34Z</time>
      </trkpt>
      <trkpt lat="50.17458" lon="3.04107">
        <ele>58.98</ele>
        <time>2016-04-23T15:09:41Z</time>
      </trkpt>
      <trkpt lat="50.17445" lon="3.04086">
        <ele>59.97</ele>
        <time>2016-04-23T15:09:48Z</time>
      </trkpt>
      <trkpt lat="50.17432" lon="3.04063">
        <ele>58.21</ele>
        <time>2016-04-23T15:09:55Z</time>
      </trkpt>
      <trkpt lat="50.17423" lon="3.04036">
        <ele>56.23</ele>
        <time>2016-04-23T15:10:02Z</time>
      </trkpt>
      <trkpt lat="50.17413" lon="3.04008">
        <ele>59.41</ele>
        <time>2016-04-23T15:10:11Z</time>
      </trkpt>
      <trkpt lat="50.17379" lon="3.03865">
        <ele>20.85</ele>
        <time>2016-04-23T15:10:44Z</time>
      </trkpt>
      <trkpt lat="50.17364" lon="3.03845">
        <ele>50.1</ele>
        <time>2016-04-23T15:10:55Z</time>
      </trkpt>
      <trkpt lat="50.17352" lon="3.03825">
        <ele>53.9</ele>
        <time>2016-04-23T15:11:01Z</time>
      </trkpt>
      <trkpt lat="50.17337" lon="3.03802">
        <ele>56.84</ele>
        <time>2016-04-23T15:11:09Z</time>
      </trkpt>
      <trkpt lat="50.17323" lon="3.03783">
        <ele>55.22</ele>
        <time>2016-04-23T15:11:15Z</time>
      </trkpt>
      <trkpt lat="50.1731" lon="3.03759">
        <ele>58.97</ele>
        <time>2016-04-23T15:11:22Z</time>
      </trkpt>
      <trkpt lat="50.17297" lon="3.03736">
        <ele>55.18</ele>
        <time>2016-04-23T15:11:29Z</time>
      </trkpt>
      <trkpt lat="50.17287" lon="3.03712">
        <ele>59.17</ele>
        <time>2016-04-23T15:11:37Z</time>
      </trkpt>
      <trkpt lat="50.17273" lon="3.03693">
        <ele>59.98</ele>
        <time>2016-04-23T15:11:44Z</time>
      </trkpt>
      <trkpt lat="50.17261" lon="3.03668">
        <ele>59.06</ele>
        <time>2016-04-23T15:11:53Z</time>
      </trkpt>
      <trkpt lat="50.17246" lon="3.03647">
        <ele>59.21</ele>
        <time>2016-04-23T15:12:00Z</time>
      </trkpt>
      <trkpt lat="50.17233" lon="3.03626">
        <ele>61.17</ele>
        <time>2016-04-23T15:12:08Z</time>
      </trkpt>
      <trkpt lat="50.1722" lon="3.03605">
        <ele>63.22</ele>
        <time>2016-04-23T15:12:16Z</time>
      </trkpt>
      <trkpt lat="50.1721" lon="3.03579">
        <ele>64.97</ele>
        <time>2016-04-23T15:12:25Z</time>
      </trkpt>
      <trkpt lat="50.17195" lon="3.03558">
        <ele>66.57</ele>
        <time>2016-04-23T15:12:33Z</time>
      </trkpt>
      <trkpt lat="50.17185" lon="3.03532">
        <ele>64.27</ele>
        <time>2016-04-23T15:12:42Z</time>
      </trkpt>
      <trkpt lat="50.17173" lon="3.0351">
        <ele>61.84</ele>
        <time>2016-04-23T15:12:50Z</time>
      </trkpt>
      <trkpt lat="50.17158" lon="3.03489">
        <ele>64.92</ele>
        <time>2016-04-23T15:12:59Z</time>
      </trkpt>
      <trkpt lat="50.17145" lon="3.03467">
        <ele>65.33</ele>
        <time>2016-04-23T15:13:05Z</time>
      </trkpt>
      <trkpt lat="50.17135" lon="3.03441">
        <ele>66.21</ele>
        <time>2016-04-23T15:13:13Z</time>
      </trkpt>
      <trkpt lat="50.17125" lon="3.03417">
        <ele>68.78</ele>
        <time>2016-04-23T15:13:20Z</time>
      </trkpt>
      <trkpt lat="50.17119" lon="3.03389">
        <ele>66.73</ele>
        <time>2016-04-23T15:13:28Z</time>
      </trkpt>
      <trkpt lat="50.17111" lon="3.03361">
        <ele>61.81</ele>
        <time>2016-04-23T15:13:35Z</time>
      </trkpt>
      <trkpt lat="50.171" lon="3.03336">
        <ele>61.38</ele>
        <time>2016-04-23T15:13:42Z</time>
      </trkpt>
      <trkpt lat="50.17089" lon="3.03309">
        <ele>63.2</ele>
        <time>2016-04-23T15:13:50Z</time>
      </trkpt>
      <trkpt lat="50.1708" lon="3.03284">
        <ele>59.64</ele>
        <time>2016-04-23T15:13:57Z</time>
      </trkpt>
      <trkpt lat="50.17069" lon="3.03257">
        <ele>62.01</ele>
        <time>2016-04-23T15:14:05Z</time>
      </trkpt>
      <trkpt lat="50.17058" lon="3.03234">
        <ele>65.2</ele>
        <time>2016-04-23T15:14:12Z</time>
      </trkpt>
      <trkpt lat="50.17045" lon="3.03215">
        <ele>66.26</ele>
        <time>2016-04-23T15:14:18Z</time>
      </trkpt>
      <trkpt lat="50.17032" lon="3.03192">
        <ele>72.2</ele>
        <time>2016-04-23T15:14:27Z</time>
      </trkpt>
      <trkpt lat="50.17021" lon="3.03169">
        <ele>72.21</ele>
        <time>2016-04-23T15:14:34Z</time>
      </trkpt>
      <trkpt lat="50.17009" lon="3.03145">
        <ele>68.41</ele>
        <time>2016-04-23T15:14:42Z</time>
      </trkpt>
      <trkpt lat="50.16994" lon="3.03122">
        <ele>66.66</ele>
        <time>2016-04-23T15:14:50Z</time>
      </trkpt>
      <trkpt lat="50.16979" lon="3.03105">
        <ele>68.17</ele>
        <time>2016-04-23T15:14:57Z</time>
      </trkpt>
      <trkpt lat="50.16966" lon="3.03086">
        <ele>67.37</ele>
        <time>2016-04-23T15:15:05Z</time>
      </trkpt>
      <trkpt lat="50.16915" lon="3.03012">
        <ele>57.29</ele>
        <time>2016-04-23T15:15:43Z</time>
      </trkpt>
      <trkpt lat="50.16894" lon="3.02996">
        <ele>58.01</ele>
        <time>2016-04-23T15:15:46Z</time>
      </trkpt>
      <trkpt lat="50.16874" lon="3.02982">
        <ele>63.13</ele>
        <time>2016-04-23T15:15:51Z</time>
      </trkpt>
      <trkpt lat="50.16858" lon="3.02995">
        <ele>69.92</ele>
        <time>2016-04-23T15:15:56Z</time>
      </trkpt>
      <trkpt lat="50.16848" lon="3.0302">
        <ele>71.94</ele>
        <time>2016-04-23T15:16:03Z</time>
      </trkpt>
      <trkpt lat="50.16836" lon="3.03047">
        <ele>73.02</ele>
        <time>2016-04-23T15:16:12Z</time>
      </trkpt>
      <trkpt lat="50.16824" lon="3.03069">
        <ele>71.22</ele>
        <time>2016-04-23T15:16:20Z</time>
      </trkpt>
      <trkpt lat="50.16813" lon="3.03097">
        <ele>72.02</ele>
        <time>2016-04-23T15:16:28Z</time>
      </trkpt>
      <trkpt lat="50.16802" lon="3.03121">
        <ele>71.21</ele>
        <time>2016-04-23T15:16:36Z</time>
      </trkpt>
      <trkpt lat="50.16791" lon="3.03145">
        <ele>71.22</ele>
        <time>2016-04-23T15:16:44Z</time>
      </trkpt>
      <trkpt lat="50.16778" lon="3.03169">
        <ele>71.17</ele>
        <time>2016-04-23T15:16:52Z</time>
      </trkpt>
      <trkpt lat="50.16767" lon="3.03191">
        <ele>72.17</ele>
        <time>2016-04-23T15:16:59Z</time>
      </trkpt>
      <trkpt lat="50.16756" lon="3.03215">
        <ele>72.41</ele>
        <time>2016-04-23T15:17:06Z</time>
      </trkpt>
      <trkpt lat="50.16743" lon="3.03239">
        <ele>75.37</ele>
        <time>2016-04-23T15:17:13Z</time>
      </trkpt>
      <trkpt lat="50.16728" lon="3.03253">
        <ele>72.06</ele>
        <time>2016-04-23T15:17:20Z</time>
      </trkpt>
      <trkpt lat="50.16719" lon="3.03279">
        <ele>73.21</ele>
        <time>2016-04-23T15:17:27Z</time>
      </trkpt>
      <trkpt lat="50.16705" lon="3.03301">
        <ele>75.21</ele>
        <time>2016-04-23T15:17:35Z</time>
      </trkpt>
      <trkpt lat="50.16688" lon="3.03286">
        <ele>74.25</ele>
        <time>2016-04-23T15:17:44Z</time>
      </trkpt>
      <trkpt lat="50.16668" lon="3.03264">
        <ele>76.2</ele>
        <time>2016-04-23T15:17:50Z</time>
      </trkpt>
      <trkpt lat="50.16651" lon="3.03246">
        <ele>74.26</ele>
        <time>2016-04-23T15:17:54Z</time>
      </trkpt>
      <trkpt lat="50.16637" lon="3.03225">
        <ele>71.23</ele>
        <time>2016-04-23T15:17:58Z</time>
      </trkpt>
      <trkpt lat="50.16621" lon="3.0321">
        <ele>74.4</ele>
        <time>2016-04-23T15:18:02Z</time>
      </trkpt>
      <trkpt lat="50.16606" lon="3.03185">
        <ele>68.82</ele>
        <time>2016-04-23T15:18:07Z</time>
      </trkpt>
      <trkpt lat="50.16588" lon="3.03172">
        <ele>73.01</ele>
        <time>2016-04-23T15:18:14Z</time>
      </trkpt>
      <trkpt lat="50.16571" lon="3.03155">
        <ele>75.23</ele>
        <time>2016-04-23T15:18:22Z</time>
      </trkpt>
      <trkpt lat="50.16554" lon="3.03137">
        <ele>74.45</ele>
        <time>2016-04-23T15:18:31Z</time>
      </trkpt>
      <trkpt lat="50.1654" lon="3.03116">
        <ele>73.62</ele>
        <time>2016-04-23T15:18:38Z</time>
      </trkpt>
      <trkpt lat="50.16525" lon="3.03098">
        <ele>77.01</ele>
        <time>2016-04-23T15:18:45Z</time>
      </trkpt>
      <trkpt lat="50.16509" lon="3.03079">
        <ele>79.37</ele>
        <time>2016-04-23T15:18:52Z</time>
      </trkpt>
      <trkpt lat="50.16495" lon="3.03058">
        <ele>79.6</ele>
        <time>2016-04-23T15:19:00Z</time>
      </trkpt>
      <trkpt lat="50.16479" lon="3.03038">
        <ele>78.89</ele>
        <time>2016-04-23T15:19:06Z</time>
      </trkpt>
      <trkpt lat="50.16465" lon="3.03021">
        <ele>77.42</ele>
        <time>2016-04-23T15:19:14Z</time>
      </trkpt>
      <trkpt lat="50.16449" lon="3.03005">
        <ele>76.26</ele>
        <time>2016-04-23T15:19:22Z</time>
      </trkpt>
      <trkpt lat="50.16434" lon="3.02984">
        <ele>75.41</ele>
        <time>2016-04-23T15:19:30Z</time>
      </trkpt>
      <trkpt lat="50.16421" lon="3.02962">
        <ele>73.87</ele>
        <time>2016-04-23T15:19:37Z</time>
      </trkpt>
      <trkpt lat="50.16405" lon="3.02945">
        <ele>71.26</ele>
        <time>2016-04-23T15:19:45Z</time>
      </trkpt>
      <trkpt lat="50.1639" lon="3.02926">
        <ele>69.18</ele>
        <time>2016-04-23T15:19:53Z</time>
      </trkpt>
      <trkpt lat="50.16373" lon="3.02918">
        <ele>75.96</ele>
        <time>2016-04-23T15:20:00Z</time>
      </trkpt>
      <trkpt lat="50.16355" lon="3.029">
        <ele>79.17</ele>
        <time>2016-04-23T15:20:08Z</time>
      </trkpt>
      <trkpt lat="50.16311" lon="3.02789">
        <ele>59.81</ele>
        <time>2016-04-23T15:20:44Z</time>
      </trkpt>
      <trkpt lat="50.1629" lon="3.0279">
        <ele>75.33</ele>
        <time>2016-04-23T15:20:48Z</time>
      </trkpt>
      <trkpt lat="50.16271" lon="3.02782">
        <ele>78.13</ele>
        <time>2016-04-23T15:20:54Z</time>
      </trkpt>
      <trkpt lat="50.16255" lon="3.02765">
        <ele>76.62</ele>
        <time>2016-04-23T15:21:02Z</time>
      </trkpt>
      <trkpt lat="50.16238" lon="3.0275">
        <ele>79.14</ele>
        <time>2016-04-23T15:21:09Z</time>
      </trkpt>
      <trkpt lat="50.16222" lon="3.02735">
        <ele>82.39</ele>
        <time>2016-04-23T15:21:18Z</time>
      </trkpt>
      <trkpt lat="50.16206" lon="3.02717">
        <ele>82.43</ele>
        <time>2016-04-23T15:21:27Z</time>
      </trkpt>
      <trkpt lat="50.16191" lon="3.02699">
        <ele>84.22</ele>
        <time>2016-04-23T15:21:35Z</time>
      </trkpt>
      <trkpt lat="50.16177" lon="3.02681">
        <ele>85.01</ele>
        <time>2016-04-23T15:21:43Z</time>
      </trkpt>
      <trkpt lat="50.16161" lon="3.02663">
        <ele>86.02</ele>
        <time>2016-04-23T15:21:51Z</time>
      </trkpt>
      <trkpt lat="50.16147" lon="3.02644">
        <ele>85.03</ele>
        <time>2016-04-23T15:21:58Z</time>
      </trkpt>
      <trkpt lat="50.16131" lon="3.02629">
        <ele>85.02</ele>
        <time>2016-04-23T15:22:05Z</time>
      </trkpt>
      <trkpt lat="50.16116" lon="3.02611">
        <ele>84.22</ele>
        <time>2016-04-23T15:22:13Z</time>
      </trkpt>
      <trkpt lat="50.16102" lon="3.02591">
        <ele>82.46</ele>
        <time>2016-04-23T15:22:22Z</time>
      </trkpt>
      <trkpt lat="50.16086" lon="3.02573">
        <ele>83.25</ele>
        <time>2016-04-23T15:22:29Z</time>
      </trkpt>
      <trkpt lat="50.1607" lon="3.02555">
        <ele>82.42</ele>
        <time>2016-04-23T15:22:36Z</time>
      </trkpt>
      <trkpt lat="50.16053" lon="3.0257">
        <ele>85.22</ele>
        <time>2016-04-23T15:22:43Z</time>
      </trkpt>
      <trkpt lat="50.16037" lon="3.02591">
        <ele>83.25</ele>
        <time>2016-04-23T15:22:50Z</time>
      </trkpt>
      <trkpt lat="50.16024" lon="3.02611">
        <ele>83.37</ele>
        <time>2016-04-23T15:22:55Z</time>
      </trkpt>
      <trkpt lat="50.16011" lon="3.02637">
        <ele>83.21</ele>
        <time>2016-04-23T15:23:00Z</time>
      </trkpt>
      <trkpt lat="50.15997" lon="3.02657">
        <ele>83.25</ele>
        <time>2016-04-23T15:23:05Z</time>
      </trkpt>
      <trkpt lat="50.15986" lon="3.02683">
        <ele>82.21</ele>
        <time>2016-04-23T15:23:11Z</time>
      </trkpt>
      <trkpt lat="50.15971" lon="3.02705">
        <ele>81.26</ele>
        <time>2016-04-23T15:23:19Z</time>
      </trkpt>
      <trkpt lat="50.1596" lon="3.02728">
        <ele>81.41</ele>
        <time>2016-04-23T15:23:26Z</time>
      </trkpt>
      <trkpt lat="50.1595" lon="3.02752">
        <ele>84.17</ele>
        <time>2016-04-23T15:23:33Z</time>
      </trkpt>
      <trkpt lat="50.15935" lon="3.02775">
        <ele>84.21</ele>
        <time>2016-04-23T15:23:42Z</time>
      </trkpt>
      <trkpt lat="50.15925" lon="3.028">
        <ele>88.16</ele>
        <time>2016-04-23T15:23:49Z</time>
      </trkpt>
      <trkpt lat="50.15911" lon="3.02817">
        <ele>86.42</ele>
        <time>2016-04-23T15:23:57Z</time>
      </trkpt>
      <trkpt lat="50.15896" lon="3.02836">
        <ele>83.19</ele>
        <time>2016-04-23T15:24:06Z</time>
      </trkpt>
      <trkpt lat="50.15888" lon="3.02862">
        <ele>84.97</ele>
        <time>2016-04-23T15:24:12Z</time>
      </trkpt>
      <trkpt lat="50.15876" lon="3.02885">
        <ele>85.01</ele>
        <time>2016-04-23T15:24:20Z</time>
      </trkpt>
      <trkpt lat="50.15863" lon="3.02905">
        <ele>84.21</ele>
        <time>2016-04-23T15:24:28Z</time>
      </trkpt>
      <trkpt lat="50.15849" lon="3.02929">
        <ele>83.96</ele>
        <time>2016-04-23T15:24:36Z</time>
      </trkpt>
      <trkpt lat="50.15837" lon="3.02952">
        <ele>86.02</ele>
        <time>2016-04-23T15:24:44Z</time>
      </trkpt>
      <trkpt lat="50.15825" lon="3.02975">
        <ele>88.01</ele>
        <time>2016-04-23T15:24:51Z</time>
      </trkpt>
      <trkpt lat="50.15811" lon="3.02997">
        <ele>88.21</ele>
        <time>2016-04-23T15:24:59Z</time>
      </trkpt>
      <trkpt lat="50.15799" lon="3.0302">
        <ele>91.01</ele>
        <time>2016-04-23T15:25:06Z</time>
      </trkpt>
      <trkpt lat="50.15746" lon="3.03162">
        <ele>104.61</ele>
        <time>2016-04-23T15:25:45Z</time>
      </trkpt>
      <trkpt lat="50.15723" lon="3.03164">
        <ele>94.8</ele>
        <time>2016-04-23T15:25:50Z</time>
      </trkpt>
      <trkpt lat="50.15708" lon="3.03188">
        <ele>91.29</ele>
        <time>2016-04-23T15:25:57Z</time>
      </trkpt>
      <trkpt lat="50.15696" lon="3.03209">
        <ele>89.21</ele>
        <time>2016-04-23T15:26:04Z</time>
      </trkpt>
      <trkpt lat="50.15681" lon="3.03233">
        <ele>87.61</ele>
        <time>2016-04-23T15:26:12Z</time>
      </trkpt>
      <trkpt lat="50.15669" lon="3.03259">
        <ele>87.77</ele>
        <time>2016-04-23T15:26:20Z</time>
      </trkpt>
      <trkpt lat="50.15651" lon="3.03265">
        <ele>90.82</ele>
        <time>2016-04-23T15:26:29Z</time>
      </trkpt>
      <trkpt lat="50.15632" lon="3.03253">
        <ele>92.01</ele>
        <time>2016-04-23T15:26:36Z</time>
      </trkpt>
      <trkpt lat="50.15616" lon="3.0324">
        <ele>89.26</ele>
        <time>2016-04-23T15:26:42Z</time>
      </trkpt>
      <trkpt lat="50.15596" lon="3.03228">
        <ele>90.95</ele>
        <time>2016-04-23T15:26:48Z</time>
      </trkpt>
      <trkpt lat="50.15579" lon="3.03211">
        <ele>90.38</ele>
        <time>2016-04-23T15:26:53Z</time>
      </trkpt>
      <trkpt lat="50.1556" lon="3.03195">
        <ele>89.26</ele>
        <time>2016-04-23T15:26:59Z</time>
      </trkpt>
      <trkpt lat="50.15546" lon="3.03178">
        <ele>88.42</ele>
        <time>2016-04-23T15:27:04Z</time>
      </trkpt>
      <trkpt lat="50.15528" lon="3.03164">
        <ele>83.5</ele>
        <time>2016-04-23T15:27:10Z</time>
      </trkpt>
      <trkpt lat="50.15506" lon="3.03159">
        <ele>85.17</ele>
        <time>2016-04-23T15:27:16Z</time>
      </trkpt>
      <trkpt lat="50.15488" lon="3.03154">
        <ele>83.02</ele>
        <time>2016-04-23T15:27:22Z</time>
      </trkpt>
      <trkpt lat="50.15468" lon="3.03155">
        <ele>85</ele>
        <time>2016-04-23T15:27:28Z</time>
      </trkpt>
      <trkpt lat="50.15449" lon="3.03144">
        <ele>80.62</ele>
        <time>2016-04-23T15:27:35Z</time>
      </trkpt>
      <trkpt lat="50.15431" lon="3.03129">
        <ele>82.17</ele>
        <time>2016-04-23T15:27:43Z</time>
      </trkpt>
      <trkpt lat="50.15416" lon="3.03112">
        <ele>82.61</ele>
        <time>2016-04-23T15:27:50Z</time>
      </trkpt>
      <trkpt lat="50.154" lon="3.03094">
        <ele>84.81</ele>
        <time>2016-04-23T15:27:58Z</time>
      </trkpt>
      <trkpt lat="50.15386" lon="3.03071">
        <ele>83.26</ele>
        <time>2016-04-23T15:28:06Z</time>
      </trkpt>
      <trkpt lat="50.1537" lon="3.03054">
        <ele>83.38</ele>
        <time>2016-04-23T15:28:12Z</time>
      </trkpt>
      <trkpt lat="50.15354" lon="3.03031">
        <ele>81.85</ele>
        <time>2016-04-23T15:28:19Z</time>
      </trkpt>
      <trkpt lat="50.1534" lon="3.0301">
        <ele>86.17</ele>
        <time>2016-04-23T15:28:26Z</time>
      </trkpt>
      <trkpt lat="50.15326" lon="3.02992">
        <ele>85.04</ele>
        <time>2016-04-23T15:28:32Z</time>
      </trkpt>
      <trkpt lat="50.1531" lon="3.02975">
        <ele>86.29</ele>
        <time>2016-04-23T15:28:39Z</time>
      </trkpt>
      <trkpt lat="50.15292" lon="3.02958">
        <ele>87.17</ele>
        <time>2016-04-23T15:28:45Z</time>
      </trkpt>
      <trkpt lat="50.15277" lon="3.0294">
        <ele>85.42</ele>
        <time>2016-04-23T15:28:51Z</time>
      </trkpt>
      <trkpt lat="50.15263" lon="3.02921">
        <ele>84.09</ele>
        <time>2016-04-23T15:28:57Z</time>
      </trkpt>
      <trkpt lat="50.15249" lon="3.029">
        <ele>81.22</ele>
        <time>2016-04-23T15:29:04Z</time>
      </trkpt>
      <trkpt lat="50.15235" lon="3.02881">
        <ele>83.53</ele>
        <time>2016-04-23T15:29:10Z</time>
      </trkpt>
      <trkpt lat="50.15225" lon="3.02857">
        <ele>81.41</ele>
        <time>2016-04-23T15:29:16Z</time>
      </trkpt>
      <trkpt lat="50.15213" lon="3.02832">
        <ele>79.85</ele>
        <time>2016-04-23T15:29:24Z</time>
      </trkpt>
      <trkpt lat="50.15199" lon="3.02814">
        <ele>82.01</ele>
        <time>2016-04-23T15:29:30Z</time>
      </trkpt>
      <trkpt lat="50.15187" lon="3.02793">
        <ele>82.01</ele>
        <time>2016-04-23T15:29:36Z</time>
      </trkpt>
      <trkpt lat="50.15174" lon="3.02767">
        <ele>80.22</ele>
        <time>2016-04-23T15:29:43Z</time>
      </trkpt>
      <trkpt lat="50.15163" lon="3.02742">
        <ele>79.55</ele>
        <time>2016-04-23T15:29:52Z</time>
      </trkpt>
      <trkpt lat="50.15148" lon="3.02722">
        <ele>83.01</ele>
        <time>2016-04-23T15:29:57Z</time>
      </trkpt>
      <trkpt lat="50.15135" lon="3.027">
        <ele>85.17</ele>
        <time>2016-04-23T15:30:03Z</time>
      </trkpt>
      <trkpt lat="50.1512" lon="3.02678">
        <ele>87.01</ele>
        <time>2016-04-23T15:30:10Z</time>
      </trkpt>
      <trkpt lat="50.15046" lon="3.02545">
        <ele>74.22</ele>
        <time>2016-04-23T15:30:45Z</time>
      </trkpt>
      <trkpt lat="50.15025" lon="3.02536">
        <ele>81.2</ele>
        <time>2016-04-23T15:30:51Z</time>
      </trkpt>
      <trkpt lat="50.15008" lon="3.02522">
        <ele>82.06</ele>
        <time>2016-04-23T15:30:57Z</time>
      </trkpt>
      <trkpt lat="50.14993" lon="3.02495">
        <ele>79.78</ele>
        <time>2016-04-23T15:31:03Z</time>
      </trkpt>
      <trkpt lat="50.14975" lon="3.02486">
        <ele>73.28</ele>
        <time>2016-04-23T15:31:09Z</time>
      </trkpt>
      <trkpt lat="50.14957" lon="3.02471">
        <ele>76.97</ele>
        <time>2016-04-23T15:31:15Z</time>
      </trkpt>
      <trkpt lat="50.14939" lon="3.02456">
        <ele>79.13</ele>
        <time>2016-04-23T15:31:20Z</time>
      </trkpt>
      <trkpt lat="50.14923" lon="3.02435">
        <ele>79.18</ele>
        <time>2016-04-23T15:31:28Z</time>
      </trkpt>
      <trkpt lat="50.1491" lon="3.02411">
        <ele>78.64</ele>
        <time>2016-04-23T15:31:35Z</time>
      </trkpt>
      <trkpt lat="50.14898" lon="3.0239">
        <ele>80.77</ele>
        <time>2016-04-23T15:31:42Z</time>
      </trkpt>
      <trkpt lat="50.14886" lon="3.02367">
        <ele>83.99</ele>
        <time>2016-04-23T15:31:49Z</time>
      </trkpt>
      <trkpt lat="50.14875" lon="3.02344">
        <ele>80.46</ele>
        <time>2016-04-23T15:31:55Z</time>
      </trkpt>
      <trkpt lat="50.14861" lon="3.02321">
        <ele>81.13</ele>
        <time>2016-04-23T15:32:02Z</time>
      </trkpt>
      <trkpt lat="50.14847" lon="3.023">
        <ele>80.41</ele>
        <time>2016-04-23T15:32:08Z</time>
      </trkpt>
      <trkpt lat="50.14833" lon="3.02282">
        <ele>82.17</ele>
        <time>2016-04-23T15:32:14Z</time>
      </trkpt>
      <trkpt lat="50.14829" lon="3.02254">
        <ele>82.02</ele>
        <time>2016-04-23T15:32:21Z</time>
      </trkpt>
      <trkpt lat="50.14841" lon="3.0223">
        <ele>83.21</ele>
        <time>2016-04-23T15:32:31Z</time>
      </trkpt>
      <trkpt lat="50.14853" lon="3.02208">
        <ele>84.06</ele>
        <time>2016-04-23T15:32:40Z</time>
      </trkpt>
      <trkpt lat="50.14866" lon="3.02183">
        <ele>84.02</ele>
        <time>2016-04-23T15:32:49Z</time>
      </trkpt>
      <trkpt lat="50.14878" lon="3.02161">
        <ele>82.17</ele>
        <time>2016-04-23T15:32:58Z</time>
      </trkpt>
      <trkpt lat="50.14892" lon="3.02139">
        <ele>81.21</ele>
        <time>2016-04-23T15:33:08Z</time>
      </trkpt>
      <trkpt lat="50.14904" lon="3.02116">
        <ele>82.05</ele>
        <time>2016-04-23T15:33:18Z</time>
      </trkpt>
      <trkpt lat="50.14913" lon="3.02091">
        <ele>82.05</ele>
        <time>2016-04-23T15:33:27Z</time>
      </trkpt>
      <trkpt lat="50.14926" lon="3.02068">
        <ele>79.22</ele>
        <time>2016-04-23T15:33:37Z</time>
      </trkpt>
      <trkpt lat="50.1494" lon="3.02049">
        <ele>75.25</ele>
        <time>2016-04-23T15:33:46Z</time>
      </trkpt>
      <trkpt lat="50.14951" lon="3.02023">
        <ele>78.21</ele>
        <time>2016-04-23T15:33:56Z</time>
      </trkpt>
      <trkpt lat="50.14963" lon="3.01999">
        <ele>78.02</ele>
        <time>2016-04-23T15:34:06Z</time>
      </trkpt>
      <trkpt lat="50.14975" lon="3.01974">
        <ele>80.2</ele>
        <time>2016-04-23T15:34:15Z</time>
      </trkpt>
      <trkpt lat="50.14985" lon="3.01951">
        <ele>82.41</ele>
        <time>2016-04-23T15:34:24Z</time>
      </trkpt>
      <trkpt lat="50.14997" lon="3.01928">
        <ele>84.21</ele>
        <time>2016-04-23T15:34:33Z</time>
      </trkpt>
      <trkpt lat="50.15009" lon="3.01904">
        <ele>83.45</ele>
        <time>2016-04-23T15:34:42Z</time>
      </trkpt>
      <trkpt lat="50.15022" lon="3.0188">
        <ele>85.17</ele>
        <time>2016-04-23T15:34:51Z</time>
      </trkpt>
      <trkpt lat="50.15031" lon="3.01855">
        <ele>86.18</ele>
        <time>2016-04-23T15:35:00Z</time>
      </trkpt>
      <trkpt lat="50.15043" lon="3.0183">
        <ele>87.22</ele>
        <time>2016-04-23T15:35:09Z</time>
      </trkpt>
      <trkpt lat="50.15053" lon="3.01742">
        <ele>105.77</ele>
        <time>2016-04-23T15:35:45Z</time>
      </trkpt>
      <trkpt lat="50.15056" lon="3.01712">
        <ele>106.6</ele>
        <time>2016-04-23T15:35:52Z</time>
      </trkpt>
      <trkpt lat="50.15047" lon="3.01689">
        <ele>103.5</ele>
        <time>2016-04-23T15:35:59Z</time>
      </trkpt>
      <trkpt lat="50.15034" lon="3.01663">
        <ele>96.22</ele>
        <time>2016-04-23T15:36:07Z</time>
      </trkpt>
      <trkpt lat="50.1502" lon="3.01643">
        <ele>97.21</ele>
        <time>2016-04-23T15:36:14Z</time>
      </trkpt>
      <trkpt lat="50.15006" lon="3.01622">
        <ele>101.13</ele>
        <time>2016-04-23T15:36:21Z</time>
      </trkpt>
      <trkpt lat="50.14995" lon="3.01598">
        <ele>99.85</ele>
        <time>2016-04-23T15:36:31Z</time>
      </trkpt>
      <trkpt lat="50.14978" lon="3.0158">
        <ele>97.23</ele>
        <time>2016-04-23T15:36:38Z</time>
      </trkpt>
      <trkpt lat="50.14963" lon="3.01561">
        <ele>96.21</ele>
        <time>2016-04-23T15:36:45Z</time>
      </trkpt>
      <trkpt lat="50.14949" lon="3.01544">
        <ele>97.18</ele>
        <time>2016-04-23T15:36:51Z</time>
      </trkpt>
      <trkpt lat="50.14935" lon="3.01523">
        <ele>97.21</ele>
        <time>2016-04-23T15:36:58Z</time>
      </trkpt>
      <trkpt lat="50.14921" lon="3.01504">
        <ele>96.25</ele>
        <time>2016-04-23T15:37:05Z</time>
      </trkpt>
      <trkpt lat="50.14906" lon="3.01485">
        <ele>94.21</ele>
        <time>2016-04-23T15:37:12Z</time>
      </trkpt>
      <trkpt lat="50.14892" lon="3.01468">
        <ele>94.21</ele>
        <time>2016-04-23T15:37:19Z</time>
      </trkpt>
      <trkpt lat="50.14878" lon="3.01446">
        <ele>92.22</ele>
        <time>2016-04-23T15:37:26Z</time>
      </trkpt>
      <trkpt lat="50.14863" lon="3.01424">
        <ele>94.05</ele>
        <time>2016-04-23T15:37:34Z</time>
      </trkpt>
      <trkpt lat="50.14851" lon="3.01401">
        <ele>94.22</ele>
        <time>2016-04-23T15:37:41Z</time>
      </trkpt>
      <trkpt lat="50.14836" lon="3.01381">
        <ele>93.41</ele>
        <time>2016-04-23T15:37:48Z</time>
      </trkpt>
      <trkpt lat="50.14822" lon="3.01364">
        <ele>93.38</ele>
        <time>2016-04-23T15:37:54Z</time>
      </trkpt>
      <trkpt lat="50.14807" lon="3.01344">
        <ele>95.6</ele>
        <time>2016-04-23T15:38:02Z</time>
      </trkpt>
      <trkpt lat="50.14792" lon="3.01324">
        <ele>98.22</ele>
        <time>2016-04-23T15:38:09Z</time>
      </trkpt>
      <trkpt lat="50.14777" lon="3.01304">
        <ele>100.21</ele>
        <time>2016-04-23T15:38:16Z</time>
      </trkpt>
      <trkpt lat="50.14762" lon="3.01282">
        <ele>101.01</ele>
        <time>2016-04-23T15:38:24Z</time>
      </trkpt>
      <trkpt lat="50.14748" lon="3.01263">
        <ele>101.18</ele>
        <time>2016-04-23T15:38:31Z</time>
      </trkpt>
      <trkpt lat="50.14734" lon="3.01242">
        <ele>101.18</ele>
        <time>2016-04-23T15:38:39Z</time>
      </trkpt>
      <trkpt lat="50.14717" lon="3.01224">
        <ele>103.33</ele>
        <time>2016-04-23T15:38:46Z</time>
      </trkpt>
      <trkpt lat="50.14703" lon="3.01202">
        <ele>104.02</ele>
        <time>2016-04-23T15:38:54Z</time>
      </trkpt>
      <trkpt lat="50.1469" lon="3.01182">
        <ele>102.82</ele>
        <time>2016-04-23T15:39:01Z</time>
      </trkpt>
      <trkpt lat="50.14691" lon="3.01152">
        <ele>99.43</ele>
        <time>2016-04-23T15:39:09Z</time>
      </trkpt>
      <trkpt lat="50.14694" lon="3.01123">
        <ele>99.02</ele>
        <time>2016-04-23T15:39:17Z</time>
      </trkpt>
      <trkpt lat="50.14703" lon="3.01098">
        <ele>94.42</ele>
        <time>2016-04-23T15:39:25Z</time>
      </trkpt>
      <trkpt lat="50.1472" lon="3.01089">
        <ele>95.24</ele>
        <time>2016-04-23T15:39:33Z</time>
      </trkpt>
      <trkpt lat="50.14738" lon="3.01077">
        <ele>96.21</ele>
        <time>2016-04-23T15:39:40Z</time>
      </trkpt>
      <trkpt lat="50.14757" lon="3.0107">
        <ele>96.02</ele>
        <time>2016-04-23T15:39:48Z</time>
      </trkpt>
      <trkpt lat="50.14775" lon="3.01062">
        <ele>96.81</ele>
        <time>2016-04-23T15:39:55Z</time>
      </trkpt>
      <trkpt lat="50.14795" lon="3.01057">
        <ele>95.21</ele>
        <time>2016-04-23T15:40:02Z</time>
      </trkpt>
      <trkpt lat="50.14813" lon="3.01054">
        <ele>96.14</ele>
        <time>2016-04-23T15:40:09Z</time>
      </trkpt>
      <trkpt lat="50.14916" lon="3.01015">
        <ele>99.87</ele>
        <time>2016-04-23T15:40:45Z</time>
      </trkpt>
      <trkpt lat="50.14924" lon="3.00986">
        <ele>99.7</ele>
        <time>2016-04-23T15:40:50Z</time>
      </trkpt>
      <trkpt lat="50.14942" lon="3.0097">
        <ele>95.5</ele>
        <time>2016-04-23T15:40:57Z</time>
      </trkpt>
      <trkpt lat="50.14957" lon="3.00953">
        <ele>98.4</ele>
        <time>2016-04-23T15:41:05Z</time>
      </trkpt>
      <trkpt lat="50.14974" lon="3.00936">
        <ele>96.19</ele>
        <time>2016-04-23T15:41:13Z</time>
      </trkpt>
      <trkpt lat="50.14989" lon="3.00918">
        <ele>96.21</ele>
        <time>2016-04-23T15:41:20Z</time>
      </trkpt>
      <trkpt lat="50.15006" lon="3.00909">
        <ele>97.97</ele>
        <time>2016-04-23T15:41:27Z</time>
      </trkpt>
      <trkpt lat="50.15024" lon="3.00899">
        <ele>95.49</ele>
        <time>2016-04-23T15:41:36Z</time>
      </trkpt>
      <trkpt lat="50.15038" lon="3.0088">
        <ele>92.21</ele>
        <time>2016-04-23T15:41:43Z</time>
      </trkpt>
      <trkpt lat="50.15053" lon="3.00861">
        <ele>92.18</ele>
        <time>2016-04-23T15:41:49Z</time>
      </trkpt>
      <trkpt lat="50.15067" lon="3.00841">
        <ele>92.25</ele>
        <time>2016-04-23T15:41:55Z</time>
      </trkpt>
      <trkpt lat="50.15083" lon="3.00823">
        <ele>90.02</ele>
        <time>2016-04-23T15:42:03Z</time>
      </trkpt>
      <trkpt lat="50.15098" lon="3.00805">
        <ele>89.85</ele>
        <time>2016-04-23T15:42:10Z</time>
      </trkpt>
      <trkpt lat="50.15114" lon="3.00787">
        <ele>88.02</ele>
        <time>2016-04-23T15:42:18Z</time>
      </trkpt>
      <trkpt lat="50.15129" lon="3.00769">
        <ele>88.25</ele>
        <time>2016-04-23T15:42:25Z</time>
      </trkpt>
      <trkpt lat="50.15144" lon="3.00753">
        <ele>91.8</ele>
        <time>2016-04-23T15:42:32Z</time>
      </trkpt>
      <trkpt lat="50.1516" lon="3.00739">
        <ele>92.45</ele>
        <time>2016-04-23T15:42:39Z</time>
      </trkpt>
      <trkpt lat="50.15176" lon="3.00726">
        <ele>88.46</ele>
        <time>2016-04-23T15:42:47Z</time>
      </trkpt>
      <trkpt lat="50.15191" lon="3.00708">
        <ele>87.45</ele>
        <time>2016-04-23T15:42:53Z</time>
      </trkpt>
      <trkpt lat="50.15205" lon="3.00689">
        <ele>87.82</ele>
        <time>2016-04-23T15:43:00Z</time>
      </trkpt>
      <trkpt lat="50.15221" lon="3.0067">
        <ele>88.09</ele>
        <time>2016-04-23T15:43:08Z</time>
      </trkpt>
      <trkpt lat="50.15237" lon="3.00651">
        <ele>87.05</ele>
        <time>2016-04-23T15:43:16Z</time>
      </trkpt>
      <trkpt lat="50.15254" lon="3.00634">
        <ele>88.18</ele>
        <time>2016-04-23T15:43:23Z</time>
      </trkpt>
      <trkpt lat="50.1527" lon="3.00613">
        <ele>88.05</ele>
        <time>2016-04-23T15:43:30Z</time>
      </trkpt>
      <trkpt lat="50.15288" lon="3.00598">
        <ele>87.25</ele>
        <time>2016-04-23T15:43:39Z</time>
      </trkpt>
      <trkpt lat="50.15303" lon="3.00581">
        <ele>86.41</ele>
        <time>2016-04-23T15:43:46Z</time>
      </trkpt>
      <trkpt lat="50.15319" lon="3.00565">
        <ele>86.22</ele>
        <time>2016-04-23T15:43:55Z</time>
      </trkpt>
      <trkpt lat="50.15334" lon="3.00544">
        <ele>86.99</ele>
        <time>2016-04-23T15:44:01Z</time>
      </trkpt>
      <trkpt lat="50.1535" lon="3.00525">
        <ele>88.86</ele>
        <time>2016-04-23T15:44:08Z</time>
      </trkpt>
      <trkpt lat="50.15367" lon="3.00512">
        <ele>88.03</ele>
        <time>2016-04-23T15:44:16Z</time>
      </trkpt>
      <trkpt lat="50.15384" lon="3.00493">
        <ele>88.06</ele>
        <time>2016-04-23T15:44:23Z</time>
      </trkpt>
      <trkpt lat="50.15399" lon="3.00474">
        <ele>89.05</ele>
        <time>2016-04-23T15:44:30Z</time>
      </trkpt>
      <trkpt lat="50.15414" lon="3.00452">
        <ele>86.65</ele>
        <time>2016-04-23T15:44:38Z</time>
      </trkpt>
      <trkpt lat="50.15428" lon="3.00432">
        <ele>89.56</ele>
        <time>2016-04-23T15:44:46Z</time>
      </trkpt>
      <trkpt lat="50.15444" lon="3.00415">
        <ele>86.29</ele>
        <time>2016-04-23T15:44:54Z</time>
      </trkpt>
      <trkpt lat="50.15457" lon="3.00394">
        <ele>86.37</ele>
        <time>2016-04-23T15:45:01Z</time>
      </trkpt>
      <trkpt lat="50.15473" lon="3.00374">
        <ele>84.22</ele>
        <time>2016-04-23T15:45:09Z</time>
      </trkpt>
      <trkpt lat="50.15553" lon="3.00277">
        <ele>85.81</ele>
        <time>2016-04-23T15:45:46Z</time>
      </trkpt>
      <trkpt lat="50.15568" lon="3.00256">
        <ele>82.08</ele>
        <time>2016-04-23T15:45:55Z</time>
      </trkpt>
      <trkpt lat="50.15581" lon="3.00237">
        <ele>77.42</ele>
        <time>2016-04-23T15:46:02Z</time>
      </trkpt>
      <trkpt lat="50.15596" lon="3.00216">
        <ele>72.98</ele>
        <time>2016-04-23T15:46:08Z</time>
      </trkpt>
      <trkpt lat="50.15609" lon="3.00195">
        <ele>70.18</ele>
        <time>2016-04-23T15:46:15Z</time>
      </trkpt>
      <trkpt lat="50.1562" lon="3.00169">
        <ele>74.99</ele>
        <time>2016-04-23T15:46:21Z</time>
      </trkpt>
      <trkpt lat="50.15631" lon="3.00142">
        <ele>74.17</ele>
        <time>2016-04-23T15:46:28Z</time>
      </trkpt>
      <trkpt lat="50.15642" lon="3.00118">
        <ele>75.21</ele>
        <time>2016-04-23T15:46:35Z</time>
      </trkpt>
      <trkpt lat="50.15654" lon="3.00097">
        <ele>77.17</ele>
        <time>2016-04-23T15:46:42Z</time>
      </trkpt>
      <trkpt lat="50.15668" lon="3.00077">
        <ele>78.21</ele>
        <time>2016-04-23T15:46:49Z</time>
      </trkpt>
      <trkpt lat="50.15684" lon="3.00058">
        <ele>75.25</ele>
        <time>2016-04-23T15:46:56Z</time>
      </trkpt>
      <trkpt lat="50.15698" lon="3.00037">
        <ele>75.21</ele>
        <time>2016-04-23T15:47:04Z</time>
      </trkpt>
      <trkpt lat="50.15711" lon="3.00018">
        <ele>74.21</ele>
        <time>2016-04-23T15:47:11Z</time>
      </trkpt>
      <trkpt lat="50.15727" lon="2.99998">
        <ele>73.09</ele>
        <time>2016-04-23T15:47:18Z</time>
      </trkpt>
      <trkpt lat="50.15742" lon="2.99978">
        <ele>74.13</ele>
        <time>2016-04-23T15:47:25Z</time>
      </trkpt>
      <trkpt lat="50.15756" lon="2.9996">
        <ele>71.22</ele>
        <time>2016-04-23T15:47:31Z</time>
      </trkpt>
      <trkpt lat="50.15771" lon="2.99939">
        <ele>72.18</ele>
        <time>2016-04-23T15:47:39Z</time>
      </trkpt>
      <trkpt lat="50.15784" lon="2.99919">
        <ele>73.37</ele>
        <time>2016-04-23T15:47:45Z</time>
      </trkpt>
      <trkpt lat="50.15801" lon="2.99901">
        <ele>73.22</ele>
        <time>2016-04-23T15:47:52Z</time>
      </trkpt>
      <trkpt lat="50.15817" lon="2.99885">
        <ele>71.38</ele>
        <time>2016-04-23T15:47:59Z</time>
      </trkpt>
      <trkpt lat="50.15831" lon="2.99865">
        <ele>73.18</ele>
        <time>2016-04-23T15:48:06Z</time>
      </trkpt>
      <trkpt lat="50.15846" lon="2.99845">
        <ele>72.21</ele>
        <time>2016-04-23T15:48:13Z</time>
      </trkpt>
      <trkpt lat="50.15862" lon="2.99826">
        <ele>72.02</ele>
        <time>2016-04-23T15:48:20Z</time>
      </trkpt>
      <trkpt lat="50.15877" lon="2.99807">
        <ele>70.02</ele>
        <time>2016-04-23T15:48:27Z</time>
      </trkpt>
      <trkpt lat="50.15892" lon="2.99786">
        <ele>67.42</ele>
        <time>2016-04-23T15:48:34Z</time>
      </trkpt>
      <trkpt lat="50.15905" lon="2.99766">
        <ele>68.21</ele>
        <time>2016-04-23T15:48:40Z</time>
      </trkpt>
      <trkpt lat="50.15918" lon="2.99744">
        <ele>66.22</ele>
        <time>2016-04-23T15:48:47Z</time>
      </trkpt>
      <trkpt lat="50.15931" lon="2.99722">
        <ele>65.22</ele>
        <time>2016-04-23T15:48:54Z</time>
      </trkpt>
      <trkpt lat="50.15945" lon="2.99703">
        <ele>62.22</ele>
        <time>2016-04-23T15:49:00Z</time>
      </trkpt>
      <trkpt lat="50.1596" lon="2.9968">
        <ele>63.01</ele>
        <time>2016-04-23T15:49:06Z</time>
      </trkpt>
      <trkpt lat="50.15975" lon="2.99663">
        <ele>61.22</ele>
        <time>2016-04-23T15:49:13Z</time>
      </trkpt>
      <trkpt lat="50.15994" lon="2.9965">
        <ele>65.33</ele>
        <time>2016-04-23T15:49:20Z</time>
      </trkpt>
      <trkpt lat="50.16011" lon="2.99641">
        <ele>66.21</ele>
        <time>2016-04-23T15:49:26Z</time>
      </trkpt>
      <trkpt lat="50.1603" lon="2.99637">
        <ele>68.21</ele>
        <time>2016-04-23T15:49:31Z</time>
      </trkpt>
      <trkpt lat="50.1605" lon="2.99637">
        <ele>67.38</ele>
        <time>2016-04-23T15:49:38Z</time>
      </trkpt>
      <trkpt lat="50.1607" lon="2.99641">
        <ele>61.46</ele>
        <time>2016-04-23T15:49:45Z</time>
      </trkpt>
      <trkpt lat="50.1609" lon="2.99633">
        <ele>61.19</ele>
        <time>2016-04-23T15:49:50Z</time>
      </trkpt>
      <trkpt lat="50.16108" lon="2.99634">
        <ele>63.65</ele>
        <time>2016-04-23T15:49:55Z</time>
      </trkpt>
      <trkpt lat="50.16129" lon="2.99634">
        <ele>62.38</ele>
        <time>2016-04-23T15:50:00Z</time>
      </trkpt>
      <trkpt lat="50.16148" lon="2.99631">
        <ele>60.22</ele>
        <time>2016-04-23T15:50:05Z</time>
      </trkpt>
      <trkpt lat="50.16167" lon="2.99636">
        <ele>60.22</ele>
        <time>2016-04-23T15:50:12Z</time>
      </trkpt>
      <trkpt lat="50.16218" lon="2.99619">
        <ele>57.01</ele>
        <time>2016-04-23T15:50:47Z</time>
      </trkpt>
      <trkpt lat="50.16237" lon="2.99611">
        <ele>64</ele>
        <time>2016-04-23T15:51:07Z</time>
      </trkpt>
      <trkpt lat="50.16252" lon="2.99593">
        <ele>65.21</ele>
        <time>2016-04-23T15:51:25Z</time>
      </trkpt>
      <trkpt lat="50.1627" lon="2.9958">
        <ele>65.25</ele>
        <time>2016-04-23T15:52:04Z</time>
      </trkpt>
      <trkpt lat="50.16286" lon="2.99564">
        <ele>66.41</ele>
        <time>2016-04-23T15:52:21Z</time>
      </trkpt>
      <trkpt lat="50.16305" lon="2.99552">
        <ele>59.5</ele>
        <time>2016-04-23T15:52:36Z</time>
      </trkpt>
      <trkpt lat="50.16323" lon="2.99545">
        <ele>69.01</ele>
        <time>2016-04-23T15:52:54Z</time>
      </trkpt>
      <trkpt lat="50.16339" lon="2.99534">
        <ele>75.89</ele>
        <time>2016-04-23T15:53:04Z</time>
      </trkpt>
      <trkpt lat="50.16357" lon="2.99519">
        <ele>77.34</ele>
        <time>2016-04-23T15:53:19Z</time>
      </trkpt>
      <trkpt lat="50.16375" lon="2.99515">
        <ele>76.42</ele>
        <time>2016-04-23T15:53:39Z</time>
      </trkpt>
      <trkpt lat="50.16393" lon="2.9952">
        <ele>71.23</ele>
        <time>2016-04-23T15:53:53Z</time>
      </trkpt>
      <trkpt lat="50.16412" lon="2.9952">
        <ele>70.97</ele>
        <time>2016-04-23T15:54:10Z</time>
      </trkpt>
      <trkpt lat="50.1643" lon="2.99508">
        <ele>71.98</ele>
        <time>2016-04-23T15:54:25Z</time>
      </trkpt>
      <trkpt lat="50.16447" lon="2.995">
        <ele>65.54</ele>
        <time>2016-04-23T15:54:31Z</time>
      </trkpt>
      <trkpt lat="50.16464" lon="2.99487">
        <ele>73.33</ele>
        <time>2016-04-23T15:54:56Z</time>
      </trkpt>
      <trkpt lat="50.16517" lon="2.99418">
        <ele>62.02</ele>
        <time>2016-04-23T15:55:50Z</time>
      </trkpt>
      <trkpt lat="50.1653" lon="2.99443">
        <ele>68.31</ele>
        <time>2016-04-23T15:55:54Z</time>
      </trkpt>
      <trkpt lat="50.16541" lon="2.9942">
        <ele>59.12</ele>
        <time>2016-04-23T15:56:14Z</time>
      </trkpt>
      <trkpt lat="50.16548" lon="2.99391">
        <ele>63.95</ele>
        <time>2016-04-23T15:56:32Z</time>
      </trkpt>
      <trkpt lat="50.16556" lon="2.99364">
        <ele>71.07</ele>
        <time>2016-04-23T15:56:47Z</time>
      </trkpt>
      <trkpt lat="50.16575" lon="2.99357">
        <ele>66.01</ele>
        <time>2016-04-23T15:57:02Z</time>
      </trkpt>
      <trkpt lat="50.16578" lon="2.99327">
        <ele>61.56</ele>
        <time>2016-04-23T15:57:13Z</time>
      </trkpt>
      <trkpt lat="50.16599" lon="2.99324">
        <ele>66.97</ele>
        <time>2016-04-23T15:57:30Z</time>
      </trkpt>
      <trkpt lat="50.16611" lon="2.99303">
        <ele>62.77</ele>
        <time>2016-04-23T15:57:46Z</time>
      </trkpt>
      <trkpt lat="50.16625" lon="2.9928">
        <ele>65.25</ele>
        <time>2016-04-23T15:58:03Z</time>
      </trkpt>
      <trkpt lat="50.16643" lon="2.99266">
        <ele>70.21</ele>
        <time>2016-04-23T15:58:15Z</time>
      </trkpt>
      <trkpt lat="50.16657" lon="2.99248">
        <ele>75.4</ele>
        <time>2016-04-23T15:58:31Z</time>
      </trkpt>
      <trkpt lat="50.16671" lon="2.99226">
        <ele>78.21</ele>
        <time>2016-04-23T15:58:45Z</time>
      </trkpt>
      <trkpt lat="50.16682" lon="2.99203">
        <ele>81.97</ele>
        <time>2016-04-23T15:58:59Z</time>
      </trkpt>
      <trkpt lat="50.16699" lon="2.99193">
        <ele>81.23</ele>
        <time>2016-04-23T15:59:18Z</time>
      </trkpt>
      <trkpt lat="50.16713" lon="2.99175">
        <ele>80.06</ele>
        <time>2016-04-23T15:59:27Z</time>
      </trkpt>
      <trkpt lat="50.16728" lon="2.99155">
        <ele>85</ele>
        <time>2016-04-23T15:59:37Z</time>
      </trkpt>
      <trkpt lat="50.16745" lon="2.99136">
        <ele>85.02</ele>
        <time>2016-04-23T15:59:43Z</time>
      </trkpt>
      <trkpt lat="50.16762" lon="2.99122">
        <ele>84.37</ele>
        <time>2016-04-23T15:59:48Z</time>
      </trkpt>
      <trkpt lat="50.1678" lon="2.99111">
        <ele>81.46</ele>
        <time>2016-04-23T15:59:53Z</time>
      </trkpt>
      <trkpt lat="50.16795" lon="2.99094">
        <ele>80.06</ele>
        <time>2016-04-23T15:59:57Z</time>
      </trkpt>
      <trkpt lat="50.16812" lon="2.99072">
        <ele>80.02</ele>
        <time>2016-04-23T16:00:01Z</time>
      </trkpt>
      <trkpt lat="50.16826" lon="2.99055">
        <ele>79.38</ele>
        <time>2016-04-23T16:00:05Z</time>
      </trkpt>
      <trkpt lat="50.16844" lon="2.99042">
        <ele>77.29</ele>
        <time>2016-04-23T16:00:11Z</time>
      </trkpt>
      <trkpt lat="50.16948" lon="2.98933">
        <ele>65.01</ele>
        <time>2016-04-23T16:00:50Z</time>
      </trkpt>
      <trkpt lat="50.16964" lon="2.98919">
        <ele>73.25</ele>
        <time>2016-04-23T16:00:58Z</time>
      </trkpt>
      <trkpt lat="50.16977" lon="2.98898">
        <ele>75.17</ele>
        <time>2016-04-23T16:01:03Z</time>
      </trkpt>
      <trkpt lat="50.16996" lon="2.98883">
        <ele>73.05</ele>
        <time>2016-04-23T16:01:11Z</time>
      </trkpt>
      <trkpt lat="50.17011" lon="2.98868">
        <ele>74.98</ele>
        <time>2016-04-23T16:01:17Z</time>
      </trkpt>
      <trkpt lat="50.1703" lon="2.98854">
        <ele>72.38</ele>
        <time>2016-04-23T16:01:25Z</time>
      </trkpt>
      <trkpt lat="50.17046" lon="2.98839">
        <ele>72.41</ele>
        <time>2016-04-23T16:01:31Z</time>
      </trkpt>
      <trkpt lat="50.17065" lon="2.98828">
        <ele>70.21</ele>
        <time>2016-04-23T16:01:39Z</time>
      </trkpt>
      <trkpt lat="50.1708" lon="2.9881">
        <ele>71.05</ele>
        <time>2016-04-23T16:01:50Z</time>
      </trkpt>
      <trkpt lat="50.17095" lon="2.98792">
        <ele>71.05</ele>
        <time>2016-04-23T16:01:58Z</time>
      </trkpt>
      <trkpt lat="50.17109" lon="2.98773">
        <ele>69.22</ele>
        <time>2016-04-23T16:02:06Z</time>
      </trkpt>
      <trkpt lat="50.17121" lon="2.98751">
        <ele>71.17</ele>
        <time>2016-04-23T16:02:15Z</time>
      </trkpt>
      <trkpt lat="50.17132" lon="2.98775">
        <ele>73.41</ele>
        <time>2016-04-23T16:02:28Z</time>
      </trkpt>
      <trkpt lat="50.17138" lon="2.98802">
        <ele>74.21</ele>
        <time>2016-04-23T16:02:36Z</time>
      </trkpt>
      <trkpt lat="50.17145" lon="2.98829">
        <ele>77.21</ele>
        <time>2016-04-23T16:02:45Z</time>
      </trkpt>
      <trkpt lat="50.17179" lon="2.9894">
        <ele>76.41</ele>
        <time>2016-04-23T16:03:17Z</time>
      </trkpt>
      <trkpt lat="50.17179" lon="2.98969">
        <ele>71.95</ele>
        <time>2016-04-23T16:03:23Z</time>
      </trkpt>
      <trkpt lat="50.17192" lon="2.98995">
        <ele>77.96</ele>
        <time>2016-04-23T16:03:30Z</time>
      </trkpt>
      <trkpt lat="50.17196" lon="2.99025">
        <ele>75.5</ele>
        <time>2016-04-23T16:03:37Z</time>
      </trkpt>
      <trkpt lat="50.17202" lon="2.99055">
        <ele>75.46</ele>
        <time>2016-04-23T16:03:44Z</time>
      </trkpt>
      <trkpt lat="50.17208" lon="2.99086">
        <ele>77.41</ele>
        <time>2016-04-23T16:03:51Z</time>
      </trkpt>
      <trkpt lat="50.17216" lon="2.99117">
        <ele>76.41</ele>
        <time>2016-04-23T16:03:57Z</time>
      </trkpt>
      <trkpt lat="50.17221" lon="2.99147">
        <ele>74.22</ele>
        <time>2016-04-23T16:04:04Z</time>
      </trkpt>
      <trkpt lat="50.17224" lon="2.99175">
        <ele>73.22</ele>
        <time>2016-04-23T16:04:10Z</time>
      </trkpt>
      <trkpt lat="50.17226" lon="2.99205">
        <ele>71.46</ele>
        <time>2016-04-23T16:04:16Z</time>
      </trkpt>
      <trkpt lat="50.17231" lon="2.99236">
        <ele>73.01</ele>
        <time>2016-04-23T16:04:23Z</time>
      </trkpt>
      <trkpt lat="50.17236" lon="2.99265">
        <ele>70.25</ele>
        <time>2016-04-23T16:04:30Z</time>
      </trkpt>
      <trkpt lat="50.17238" lon="2.99295">
        <ele>70.41</ele>
        <time>2016-04-23T16:04:39Z</time>
      </trkpt>
      <trkpt lat="50.17239" lon="2.99324">
        <ele>72.01</ele>
        <time>2016-04-23T16:04:46Z</time>
      </trkpt>
      <trkpt lat="50.1724" lon="2.99358">
        <ele>73.01</ele>
        <time>2016-04-23T16:04:53Z</time>
      </trkpt>
      <trkpt lat="50.1724" lon="2.99391">
        <ele>76.2</ele>
        <time>2016-04-23T16:04:59Z</time>
      </trkpt>
      <trkpt lat="50.17241" lon="2.99423">
        <ele>77.04</ele>
        <time>2016-04-23T16:05:04Z</time>
      </trkpt>
      <trkpt lat="50.17241" lon="2.99454">
        <ele>77.98</ele>
        <time>2016-04-23T16:05:08Z</time>
      </trkpt>
      <trkpt lat="50.17244" lon="2.99482">
        <ele>77.34</ele>
        <time>2016-04-23T16:05:12Z</time>
      </trkpt>
      <trkpt lat="50.17252" lon="2.99511">
        <ele>78.18</ele>
        <time>2016-04-23T16:05:16Z</time>
      </trkpt>
      <trkpt lat="50.17286" lon="2.99694">
        <ele>91.17</ele>
        <time>2016-04-23T16:05:50Z</time>
      </trkpt>
      <trkpt lat="50.17289" lon="2.99722">
        <ele>98.7</ele>
        <time>2016-04-23T16:05:53Z</time>
      </trkpt>
      <trkpt lat="50.17307" lon="2.99729">
        <ele>93.43</ele>
        <time>2016-04-23T16:05:55Z</time>
      </trkpt>
      <trkpt lat="50.17324" lon="2.99749">
        <ele>109.06</ele>
        <time>2016-04-23T16:05:59Z</time>
      </trkpt>
      <trkpt lat="50.17321" lon="2.99777">
        <ele>93.22</ele>
        <time>2016-04-23T16:06:07Z</time>
      </trkpt>
      <trkpt lat="50.17337" lon="2.99791">
        <ele>85.51</ele>
        <time>2016-04-23T16:06:11Z</time>
      </trkpt>
      <trkpt lat="50.17348" lon="2.99816">
        <ele>73.22</ele>
        <time>2016-04-23T16:06:19Z</time>
      </trkpt>
      <trkpt lat="50.1736" lon="2.99843">
        <ele>70.21</ele>
        <time>2016-04-23T16:06:27Z</time>
      </trkpt>
      <trkpt lat="50.17368" lon="2.99872">
        <ele>66.26</ele>
        <time>2016-04-23T16:06:34Z</time>
      </trkpt>
      <trkpt lat="50.1738" lon="2.99896">
        <ele>66.22</ele>
        <time>2016-04-23T16:06:40Z</time>
      </trkpt>
      <trkpt lat="50.17392" lon="2.9992">
        <ele>65.25</ele>
        <time>2016-04-23T16:06:45Z</time>
      </trkpt>
      <trkpt lat="50.17397" lon="2.99949">
        <ele>65.22</ele>
        <time>2016-04-23T16:06:52Z</time>
      </trkpt>
      <trkpt lat="50.17404" lon="2.99977">
        <ele>65.23</ele>
        <time>2016-04-23T16:06:59Z</time>
      </trkpt>
      <trkpt lat="50.17411" lon="3.00005">
        <ele>68.21</ele>
        <time>2016-04-23T16:07:06Z</time>
      </trkpt>
      <trkpt lat="50.17404" lon="3.00034">
        <ele>63.38</ele>
        <time>2016-04-23T16:07:14Z</time>
      </trkpt>
      <trkpt lat="50.17402" lon="3.00065">
        <ele>63.25</ele>
        <time>2016-04-23T16:07:23Z</time>
      </trkpt>
      <trkpt lat="50.174" lon="3.00095">
        <ele>64.38</ele>
        <time>2016-04-23T16:07:29Z</time>
      </trkpt>
      <trkpt lat="50.1739" lon="3.00119">
        <ele>65.93</ele>
        <time>2016-04-23T16:07:35Z</time>
      </trkpt>
      <trkpt lat="50.17377" lon="3.00141">
        <ele>66.21</ele>
        <time>2016-04-23T16:07:44Z</time>
      </trkpt>
      <trkpt lat="50.17393" lon="3.00191">
        <ele>73.09</ele>
        <time>2016-04-23T16:08:19Z</time>
      </trkpt>
      <trkpt lat="50.17407" lon="3.00211">
        <ele>73.65</ele>
        <time>2016-04-23T16:08:26Z</time>
      </trkpt>
      <trkpt lat="50.17424" lon="3.00222">
        <ele>70.5</ele>
        <time>2016-04-23T16:08:36Z</time>
      </trkpt>
      <trkpt lat="50.17439" lon="3.00239">
        <ele>67.22</ele>
        <time>2016-04-23T16:08:46Z</time>
      </trkpt>
      <trkpt lat="50.17448" lon="3.00267">
        <ele>64.47</ele>
        <time>2016-04-23T16:08:57Z</time>
      </trkpt>
      <trkpt lat="50.17469" lon="3.00281">
        <ele>66.17</ele>
        <time>2016-04-23T16:09:05Z</time>
      </trkpt>
      <trkpt lat="50.1749" lon="3.00292">
        <ele>65.16</ele>
        <time>2016-04-23T16:09:13Z</time>
      </trkpt>
      <trkpt lat="50.17498" lon="3.0032">
        <ele>66.21</ele>
        <time>2016-04-23T16:09:28Z</time>
      </trkpt>
      <trkpt lat="50.17511" lon="3.00343">
        <ele>68.21</ele>
        <time>2016-04-23T16:09:38Z</time>
      </trkpt>
      <trkpt lat="50.17512" lon="3.00372">
        <ele>71.21</ele>
        <time>2016-04-23T16:09:48Z</time>
      </trkpt>
      <trkpt lat="50.17511" lon="3.00402">
        <ele>70.02</ele>
        <time>2016-04-23T16:09:57Z</time>
      </trkpt>
      <trkpt lat="50.17505" lon="3.00429">
        <ele>71.18</ele>
        <time>2016-04-23T16:10:10Z</time>
      </trkpt>
    </trkseg>
  </trk>
</gpx>